Sergeantsville, New Jersey
Current Conditions -  °F | °C
As of 3:21 PM on Thursday 23 Oct 2014 (Local Time) from KDYL Reporting Station
Overcast Overcast  
Wind Chill: 52°   Ceiling: 2700
Heat Index: 52°   Visibility: 10mi
Dew Point: 44°   Wind: 9mph
Humidity: 74%   Direction: 330°NNW
Pressure: 29.77"   Gusts: 20mph
Location:  40.45°N, 74.94°W
Report Text: KDYL 231921Z AUTO 33008G17KT 10SM BKN027 OVC035 11/07 A2977 RMK AO2 T01110067 $
Loading
Personal Weather Stations






























Interactive Weather Map
Tropical Storm Tracking
New forecast layout! Learn more

10-Day Weather Forecast

Advertisements
Track Severe Weather on mobile